Airport View

Enter AWOS ICAO identifier for current METAR.

ex. KFNL

KSMX 212251Z 32013G20KT 10SM CLR 26/10 A2986 RMK AO2 SLP110 T02610100

21 Sep 2019 23:26

Frequency: 121.15

Phone: 805-928-0384

Other Area AWOS: KVBG - KLPC - KSBP - KIZA

KSMX 211741Z 2118/2218 00000KT P6SM SKC FM211900 31008KT P6SM SKC FM212100 31017KT P6SM SKC FM220300 31006KT P6SM SKC FM220600 VRB03KT P6SM SKC FM221200 31007KT P6SM SKC